createdAt,value
2018-05-13T00:01:20.933Z,77.11
2018-05-13T00:03:49.506Z,77.17
2018-05-13T00:06:17.806Z,77.62
2018-05-13T00:08:46.874Z,77.87
2018-05-13T00:11:15.406Z,78.02
2018-05-13T00:13:43.752Z,77.68
2018-05-13T00:16:12.137Z,77.52
2018-05-13T00:18:40.705Z,77.72
2018-05-13T00:21:09.030Z,77.61
2018-05-13T00:23:37.497Z,77.41
2018-05-13T00:26:06.068Z,77.16
2018-05-13T00:28:34.453Z,77.73
2018-05-13T00:31:02.820Z,77.59
2018-05-13T00:33:31.623Z,77.69
2018-05-13T00:36:00.018Z,77.78
2018-05-13T00:38:28.434Z,78.12
2018-05-13T00:40:57.068Z,78.27
2018-05-13T00:43:25.430Z,77.93
2018-05-13T00:45:53.782Z,77.88
2018-05-13T00:48:22.144Z,78.14
2018-05-13T00:50:50.474Z,78.15
2018-05-13T00:53:18.822Z,78.14
2018-05-13T00:55:47.181Z,78.29
2018-05-13T00:58:16.538Z,78.11
2018-05-13T01:00:44.883Z,78.32
2018-05-13T01:03:13.257Z,77.72
2018-05-13T01:05:41.565Z,77.37
2018-05-13T01:08:09.914Z,77.02
2018-05-13T01:10:39.247Z,76.90
2018-05-13T01:13:07.593Z,77.12
2018-05-13T01:15:35.967Z,77.11
2018-05-13T01:18:04.483Z,77.09
2018-05-13T01:20:32.859Z,76.75
2018-05-13T01:23:01.320Z,76.52
2018-05-13T01:25:30.049Z,76.48
2018-05-13T01:27:58.488Z,76.42
2018-05-13T01:30:27.034Z,76.13
2018-05-13T01:32:55.784Z,75.64
2018-05-13T01:35:24.172Z,75.49
2018-05-13T01:37:52.518Z,75.66
2018-05-13T01:40:20.891Z,75.54
2018-05-13T01:42:49.279Z,76.26
2018-05-13T01:45:17.655Z,75.99
2018-05-13T01:47:46.048Z,76.53
2018-05-13T01:50:14.407Z,76.83
2018-05-13T01:52:42.763Z,76.82
2018-05-13T01:55:11.174Z,77.24
2018-05-13T01:57:39.572Z,77.48
2018-05-13T02:00:08.908Z,78.21
2018-05-13T02:02:37.749Z,78.22
2018-05-13T02:05:06.265Z,78.20
2018-05-13T02:07:34.718Z,78.50
2018-05-13T02:10:03.546Z,78.31
2018-05-13T02:12:32.004Z,78.70
2018-05-13T02:15:00.481Z,78.82
2018-05-13T02:17:29.046Z,78.69
2018-05-13T02:19:57.517Z,78.70
2018-05-13T02:22:25.890Z,78.81
2018-05-13T02:24:54.253Z,78.95
2018-05-13T02:27:23.556Z,79.22
2018-05-13T02:29:51.882Z,79.36
2018-05-13T02:32:20.743Z,79.08
2018-05-13T02:34:49.083Z,79.30
2018-05-13T02:37:17.411Z,79.53
2018-05-13T02:39:45.792Z,79.43
2018-05-13T02:42:14.115Z,79.32
2018-05-13T02:44:42.482Z,79.47
2018-05-13T02:47:11.474Z,79.82
2018-05-13T02:49:40.054Z,79.57
2018-05-13T02:52:08.521Z,79.48
2018-05-13T02:54:37.035Z,79.77
2018-05-13T02:57:05.602Z,79.87
2018-05-13T02:59:33.950Z,79.50
2018-05-13T03:02:02.456Z,79.31
2018-05-13T03:04:30.858Z,79.32
2018-05-13T03:06:59.315Z,79.47
2018-05-13T03:09:27.728Z,79.36
2018-05-13T03:11:56.076Z,79.62
2018-05-13T03:14:24.448Z,79.78
2018-05-13T03:16:52.877Z,79.68
2018-05-13T03:19:21.287Z,79.35
2018-05-13T03:21:49.634Z,79.34
2018-05-13T03:24:18.023Z,78.88
2018-05-13T03:26:46.320Z,78.78
2018-05-13T03:29:14.637Z,78.45
2018-05-13T03:31:43.122Z,78.47
2018-05-13T03:34:11.437Z,78.70
2018-05-13T03:36:39.774Z,78.80
2018-05-13T03:39:08.137Z,78.88
2018-05-13T03:41:36.519Z,78.95
2018-05-13T03:44:04.910Z,78.88
2018-05-13T03:46:33.386Z,78.83
2018-05-13T03:49:01.863Z,79.03
2018-05-13T03:51:30.381Z,79.30
2018-05-13T03:53:59.025Z,79.49
2018-05-13T03:56:27.440Z,79.66
2018-05-13T03:58:55.807Z,79.73
2018-05-13T04:01:24.226Z,79.68
2018-05-13T04:03:52.573Z,79.81
2018-05-13T04:06:20.943Z,79.82
2018-05-13T04:09:01.091Z,79.78
2018-05-13T04:11:44.083Z,79.94
2018-05-13T04:14:24.043Z,80.03
2018-05-13T04:16:52.410Z,79.87
2018-05-13T04:19:20.742Z,79.77
2018-05-13T04:21:50.137Z,79.81
2018-05-13T04:24:18.476Z,79.73
2018-05-13T04:26:47.148Z,79.89
2018-05-13T04:29:15.536Z,79.91
2018-05-13T04:31:43.892Z,79.67
2018-05-13T04:34:12.228Z,79.82
2018-05-13T04:36:40.609Z,79.73
2018-05-13T04:39:08.986Z,79.49
2018-05-13T04:41:37.375Z,79.37
2018-05-13T04:44:05.899Z,79.57
2018-05-13T04:46:34.228Z,79.42
2018-05-13T04:49:02.561Z,79.05
2018-05-13T04:51:31.377Z,78.80
2018-05-13T04:53:59.778Z,78.62
2018-05-13T04:56:28.323Z,78.25
2018-05-13T04:58:57.161Z,77.98
2018-05-13T05:01:25.529Z,77.84
2018-05-13T05:03:53.856Z,77.53
2018-05-13T05:06:22.235Z,77.10
2018-05-13T05:08:50.524Z,76.79
2018-05-13T05:11:18.896Z,76.67
2018-05-13T05:13:47.269Z,76.57
2018-05-13T05:16:15.624Z,76.50
2018-05-13T05:18:43.966Z,76.62
2018-05-13T05:21:12.338Z,76.10
2018-05-13T05:23:40.773Z,75.91
2018-05-13T05:26:09.104Z,76.51
2018-05-13T05:28:37.492Z,76.02
2018-05-13T05:31:06.012Z,75.51
2018-05-13T05:33:34.415Z,75.61
2018-05-13T05:36:03.031Z,75.47
2018-05-13T05:38:31.445Z,75.55
2018-05-13T05:40:59.985Z,74.61
2018-05-13T05:43:28.414Z,74.52
2018-05-13T05:45:56.859Z,73.97
2018-05-13T05:48:25.172Z,73.95
2018-05-13T05:50:53.536Z,73.75
2018-05-13T05:53:21.874Z,73.73
2018-05-13T05:55:50.198Z,73.94
2018-05-13T05:58:18.849Z,73.93
2018-05-13T06:00:47.201Z,74.31
2018-05-13T06:03:15.565Z,73.97
2018-05-13T06:05:44.809Z,74.07
2018-05-13T06:08:13.289Z,73.93
2018-05-13T06:10:41.593Z,73.53
2018-05-13T06:13:10.390Z,73.56
2018-05-13T06:15:38.743Z,74.21
2018-05-13T06:18:07.098Z,74.76
2018-05-13T06:20:35.884Z,74.62
2018-05-13T06:23:04.272Z,74.13
2018-05-13T06:25:32.647Z,75.12
2018-05-13T06:28:01.616Z,73.73
2018-05-13T06:30:30.118Z,73.45
2018-05-13T06:32:58.626Z,73.25
2018-05-13T06:35:27.150Z,73.21
2018-05-13T06:37:55.561Z,73.65
2018-05-13T06:40:24.010Z,73.32
2018-05-13T06:42:52.385Z,72.81
2018-05-13T06:45:20.749Z,72.64
2018-05-13T06:47:50.020Z,72.40
2018-05-13T06:50:18.393Z,71.99
2018-05-13T06:52:46.753Z,71.90
2018-05-13T06:55:15.130Z,70.79
2018-05-13T06:57:43.488Z,70.82
2018-05-13T07:00:11.818Z,72.04
2018-05-13T07:02:40.273Z,71.31
2018-05-13T07:05:08.968Z,71.01
2018-05-13T07:07:37.298Z,70.55
2018-05-13T07:10:05.708Z,70.84
2018-05-13T07:12:34.415Z,70.39
2018-05-13T07:15:02.904Z,70.10
2018-05-13T07:17:31.459Z,71.34
2018-05-13T07:19:59.917Z,72.37
2018-05-13T07:22:28.368Z,72.71
2018-05-13T07:24:56.948Z,72.15
2018-05-13T07:27:25.333Z,70.96
2018-05-13T07:29:53.687Z,70.65
2018-05-13T07:32:22.011Z,72.15
2018-05-13T07:34:50.357Z,72.22
2018-05-13T07:37:18.707Z,70.88
2018-05-13T07:39:47.044Z,71.10
2018-05-13T07:42:15.545Z,71.48
2018-05-13T07:44:43.866Z,71.43
2018-05-13T07:47:12.232Z,71.76
2018-05-13T07:49:40.664Z,72.65
2018-05-13T07:52:09.081Z,72.09
2018-05-13T07:54:37.542Z,71.42
2018-05-13T07:57:06.275Z,70.42
2018-05-13T07:59:34.734Z,70.62
2018-05-13T08:02:03.144Z,70.16
2018-05-13T08:07:23.322Z,68.16
2018-05-13T08:09:52.410Z,67.87
2018-05-13T08:12:20.866Z,67.74
2018-05-13T08:14:49.375Z,68.24
2018-05-13T08:17:17.860Z,68.92
2018-05-13T08:19:46.546Z,67.44
2018-05-13T08:22:15.196Z,66.75
2018-05-13T08:24:43.534Z,68.97
2018-05-13T08:27:12.512Z,69.54
2018-05-13T08:29:41.324Z,68.66
2018-05-13T08:32:09.761Z,68.01
2018-05-13T08:34:38.145Z,70.06
2018-05-13T08:37:06.593Z,69.63
2018-05-13T08:39:35.341Z,69.62
2018-05-13T08:42:03.801Z,70.68
2018-05-13T08:44:32.210Z,70.66
2018-05-13T08:47:00.760Z,69.73
2018-05-13T08:49:29.306Z,68.80
2018-05-13T08:51:59.279Z,68.30
2018-05-13T08:54:27.646Z,69.72
2018-05-13T08:56:55.995Z,70.05
2018-05-13T08:59:25.643Z,69.08
2018-05-13T09:01:54.416Z,67.27
2018-05-13T09:04:23.721Z,68.79
2018-05-13T09:06:52.251Z,67.84
2018-05-13T09:09:20.575Z,66.58
2018-05-13T09:11:48.959Z,64.81
2018-05-13T09:14:17.704Z,64.95
2018-05-13T09:16:46.187Z,63.69
2018-05-13T09:19:14.635Z,63.75
2018-05-13T09:21:43.013Z,63.76
2018-05-13T09:24:11.451Z,64.32
2018-05-13T09:26:40.048Z,64.21
2018-05-13T09:29:09.263Z,63.08
2018-05-13T09:31:37.654Z,62.17
2018-05-13T09:34:06.173Z,59.60
2018-05-13T09:36:35.320Z,59.70
2018-05-13T09:39:05.299Z,61.36
2018-05-13T09:41:33.705Z,61.52
2018-05-13T09:44:02.986Z,62.66
2018-05-13T09:46:32.152Z,60.42
2018-05-13T09:49:00.906Z,59.16
2018-05-13T09:51:30.042Z,59.53
2018-05-13T09:53:59.681Z,62.51
2018-05-13T09:56:28.336Z,63.50
2018-05-13T09:58:57.325Z,65.16
2018-05-13T10:01:25.825Z,66.12
2018-05-13T10:03:54.139Z,66.06
2018-05-13T10:06:23.298Z,67.34
2018-05-13T10:08:51.619Z,63.56
2018-05-13T10:11:19.945Z,60.52
2018-05-13T10:13:49.696Z,60.50
2018-05-13T10:16:18.082Z,61.39
2018-05-13T10:18:46.431Z,62.79
2018-05-13T10:21:14.883Z,65.58
2018-05-13T10:23:43.315Z,65.60
2018-05-13T10:26:11.675Z,66.14
2018-05-13T10:28:40.054Z,65.63
2018-05-13T10:31:08.433Z,66.53
2018-05-13T10:33:36.815Z,65.05
2018-05-13T10:36:05.852Z,63.47
2018-05-13T10:38:34.269Z,62.70
2018-05-13T10:41:02.798Z,60.63
2018-05-13T10:43:31.532Z,59.95
2018-05-13T10:45:59.946Z,60.65
2018-05-13T10:48:28.375Z,61.76
2018-05-13T10:50:58.393Z,61.12
2018-05-13T10:53:27.054Z,60.72
2018-05-13T10:55:55.380Z,58.10
2018-05-13T10:58:23.757Z,55.17
2018-05-13T11:00:52.102Z,53.54
2018-05-13T11:03:20.458Z,52.68
2018-05-13T11:05:49.486Z,53.13
2018-05-13T11:08:18.039Z,50.30
2018-05-13T11:10:46.350Z,47.46
2018-05-13T11:13:15.230Z,49.00
2018-05-13T11:15:43.556Z,49.54
2018-05-13T11:18:11.891Z,49.55
2018-05-13T11:20:40.444Z,50.38
2018-05-13T11:23:08.839Z,50.00
2018-05-13T11:25:37.285Z,49.06
2018-05-13T11:28:05.711Z,49.12
2018-05-13T11:30:34.327Z,48.81
2018-05-13T11:33:02.876Z,49.43
2018-05-13T11:35:32.136Z,48.40
2018-05-13T11:38:01.224Z,49.02
2018-05-13T11:40:29.696Z,49.19
2018-05-13T11:42:58.162Z,49.23
2018-05-13T11:45:26.636Z,49.67
2018-05-13T11:47:55.000Z,48.99
2018-05-13T11:50:23.590Z,49.01
2018-05-13T11:52:52.162Z,49.01
2018-05-13T11:55:20.479Z,48.30
2018-05-13T11:57:49.929Z,48.07
2018-05-13T12:00:18.516Z,46.57
2018-05-13T12:02:47.093Z,51.18
2018-05-13T12:05:16.321Z,49.09
2018-05-13T12:07:46.720Z,49.08
2018-05-13T12:10:15.212Z,49.72
2018-05-13T12:12:44.420Z,49.14
2018-05-13T12:15:12.994Z,49.07
2018-05-13T12:17:41.379Z,49.27
2018-05-13T12:20:10.982Z,51.13
2018-05-13T12:22:39.377Z,53.61
2018-05-13T12:25:07.757Z,51.48
2018-05-13T12:27:37.038Z,49.50
2018-05-13T12:30:05.567Z,49.32
2018-05-13T12:32:34.065Z,49.69
2018-05-13T12:35:02.521Z,50.66
2018-05-13T12:37:31.161Z,52.22
2018-05-13T12:39:59.661Z,52.23
2018-05-13T12:42:28.634Z,52.15
2018-05-13T12:44:57.226Z,51.99
2018-05-13T12:47:25.685Z,51.29
2018-05-13T12:49:54.390Z,51.26
2018-05-13T12:52:22.677Z,48.23
2018-05-13T12:54:51.024Z,48.30
2018-05-13T12:57:20.808Z,46.06
2018-05-13T12:59:49.168Z,43.90
2018-05-13T13:02:17.528Z,43.91
2018-05-13T13:04:46.111Z,42.76
2018-05-13T13:07:14.584Z,44.12
2018-05-13T13:09:43.173Z,47.02
2018-05-13T13:12:12.423Z,47.66
2018-05-13T13:14:40.868Z,47.46
2018-05-13T13:17:09.228Z,46.11
2018-05-13T13:19:38.339Z,46.41
2018-05-13T13:22:06.784Z,45.84
2018-05-13T13:24:35.418Z,45.56
2018-05-13T13:27:05.563Z,45.61
2018-05-13T13:29:34.455Z,46.37
2018-05-13T13:32:02.995Z,46.50
2018-05-13T13:34:32.607Z,46.33
2018-05-13T13:37:01.202Z,44.65
2018-05-13T13:39:29.734Z,42.33
2018-05-13T13:41:58.402Z,40.63
2018-05-13T13:44:27.621Z,41.63
2018-05-13T13:46:58.323Z,41.21
2018-05-13T13:49:27.754Z,39.78
2018-05-13T13:51:56.147Z,38.30
2018-05-13T13:54:24.478Z,39.18
2018-05-13T13:56:53.123Z,39.33
2018-05-13T13:59:21.681Z,38.91
2018-05-13T14:01:49.971Z,39.15
2018-05-13T14:04:18.871Z,38.70
2018-05-13T14:06:47.246Z,39.18
2018-05-13T14:09:15.570Z,39.84
2018-05-13T14:11:43.944Z,38.58
2018-05-13T14:14:12.258Z,38.65
2018-05-13T14:16:40.635Z,38.56
2018-05-13T14:19:09.070Z,37.82
2018-05-13T14:21:37.534Z,39.37
2018-05-13T14:24:05.940Z,38.00
2018-05-13T14:26:34.567Z,37.48
2018-05-13T14:29:03.220Z,37.33
2018-05-13T14:31:32.395Z,38.68
2018-05-13T14:34:01.305Z,39.02
2018-05-13T14:36:29.854Z,37.36
2018-05-13T14:38:58.530Z,37.66
2018-05-13T14:41:27.841Z,37.55
2018-05-13T14:43:56.251Z,38.13
2018-05-13T14:46:24.653Z,38.02
2018-05-13T14:48:53.989Z,38.95
2018-05-13T14:51:22.305Z,39.61
2018-05-13T14:53:50.789Z,38.71
2018-05-13T14:56:19.808Z,38.99
2018-05-13T14:58:48.187Z,38.40
2018-05-13T15:01:17.050Z,38.05
2018-05-13T15:03:45.560Z,37.71
2018-05-13T15:06:14.498Z,37.72
2018-05-13T15:08:43.001Z,38.05
2018-05-13T15:11:11.879Z,37.14
2018-05-13T15:13:40.372Z,37.52
2018-05-13T15:16:08.777Z,37.43
2018-05-13T15:18:38.355Z,36.56
2018-05-13T15:21:07.506Z,37.33
2018-05-13T15:23:35.930Z,36.99
2018-05-13T15:26:04.681Z,36.93
2018-05-13T15:28:33.224Z,37.78
2018-05-13T15:31:01.691Z,37.61
2018-05-13T15:33:30.785Z,38.13
2018-05-13T15:35:59.417Z,38.32
2018-05-13T15:38:28.184Z,38.64
2018-05-13T15:40:56.634Z,38.30
2018-05-13T15:43:25.029Z,37.50
2018-05-13T15:45:53.317Z,37.57
2018-05-13T15:48:22.090Z,39.00
2018-05-13T15:50:51.399Z,39.42
2018-05-13T15:53:19.769Z,39.06
2018-05-13T15:55:49.068Z,39.15
2018-05-13T15:58:17.638Z,39.11
2018-05-13T16:00:46.149Z,38.67
2018-05-13T16:03:14.924Z,38.78
2018-05-13T16:05:43.284Z,39.45
2018-05-13T16:08:11.666Z,40.02
2018-05-13T16:10:40.283Z,40.35
2018-05-13T16:13:08.622Z,39.78
2018-05-13T16:15:37.313Z,40.70
2018-05-13T16:18:05.827Z,42.57
2018-05-13T16:20:34.574Z,43.78
2018-05-13T16:23:03.023Z,44.08
2018-05-13T16:25:31.445Z,44.08
2018-05-13T16:27:59.867Z,43.42
2018-05-13T16:30:28.465Z,43.74
2018-05-13T16:32:56.901Z,43.13
2018-05-13T16:35:25.197Z,43.29
2018-05-13T16:37:53.551Z,44.02
2018-05-13T16:40:21.955Z,44.55
2018-05-13T16:42:50.306Z,45.07
2018-05-13T16:45:18.626Z,44.97
2018-05-13T16:47:47.546Z,44.85
2018-05-13T16:50:15.881Z,44.57
2018-05-13T16:52:44.333Z,44.57
2018-05-13T16:55:12.819Z,44.98
2018-05-13T16:57:41.119Z,45.16
2018-05-13T17:00:09.529Z,44.86
2018-05-13T17:02:38.690Z,45.38
2018-05-13T17:05:07.261Z,45.29
2018-05-13T17:07:35.596Z,45.52
2018-05-13T17:10:04.358Z,46.04
2018-05-13T17:12:32.713Z,45.74
2018-05-13T17:15:01.196Z,45.78
2018-05-13T17:17:31.648Z,46.72
2018-05-13T17:20:00.091Z,46.81
2018-05-13T17:22:28.490Z,46.00
2018-05-13T17:24:57.778Z,45.96
2018-05-13T17:27:26.149Z,46.42
2018-05-13T17:29:54.585Z,46.33
2018-05-13T17:32:24.884Z,46.44
2018-05-13T17:34:53.298Z,46.44
2018-05-13T17:37:21.787Z,46.29
2018-05-13T17:39:50.078Z,46.67
2018-05-13T17:42:18.388Z,46.69
2018-05-13T17:44:46.779Z,47.04
2018-05-13T17:47:15.118Z,46.86
2018-05-13T17:49:43.508Z,47.63
2018-05-13T17:52:11.747Z,47.49
2018-05-13T17:54:41.130Z,47.09
2018-05-13T17:57:09.574Z,46.45
2018-05-13T17:59:37.885Z,46.06
2018-05-13T18:02:06.483Z,46.02
2018-05-13T18:04:34.920Z,46.01
2018-05-13T18:07:03.296Z,46.33
2018-05-13T18:09:33.033Z,45.86
2018-05-13T18:12:01.681Z,46.31
2018-05-13T18:14:30.601Z,45.93
2018-05-13T18:16:59.974Z,45.95
2018-05-13T18:19:29.170Z,46.32
2018-05-13T18:21:57.575Z,46.97
2018-05-13T18:24:26.176Z,47.06
2018-05-13T18:26:54.410Z,46.81
2018-05-13T18:29:22.714Z,46.96
2018-05-13T18:31:51.273Z,47.10
2018-05-13T18:34:19.954Z,47.58
2018-05-13T18:36:48.256Z,47.89
2018-05-13T18:39:16.699Z,48.21
2018-05-13T18:41:45.018Z,48.73
2018-05-13T18:44:13.347Z,48.84
2018-05-13T18:46:42.504Z,48.99
2018-05-13T18:49:11.111Z,49.33
2018-05-13T18:51:39.434Z,49.69
2018-05-13T18:54:07.951Z,49.52
2018-05-13T18:56:36.351Z,49.92
2018-05-13T18:59:04.741Z,49.92
2018-05-13T19:01:33.262Z,50.23
2018-05-13T19:04:01.819Z,50.29
2018-05-13T19:06:30.277Z,50.68
2018-05-13T19:08:59.093Z,50.66
2018-05-13T19:11:27.645Z,50.67
2018-05-13T19:13:55.993Z,50.93
2018-05-13T19:16:24.670Z,51.14
2018-05-13T19:18:53.008Z,51.42
2018-05-13T19:21:21.368Z,51.16
2018-05-13T19:23:49.825Z,51.55
2018-05-13T19:26:18.171Z,51.61
2018-05-13T19:28:46.482Z,51.63
2018-05-13T19:31:14.882Z,51.81
2018-05-13T19:33:43.406Z,51.79
2018-05-13T19:36:11.716Z,51.92
2018-05-13T19:38:40.223Z,52.15
2018-05-13T19:41:08.830Z,52.37
2018-05-13T19:43:37.302Z,52.38
2018-05-13T19:46:06.565Z,52.77
2018-05-13T19:48:36.051Z,52.84
2018-05-13T19:51:04.530Z,52.42
2018-05-13T19:53:32.957Z,52.59
2018-05-13T19:56:01.875Z,53.18
2018-05-13T19:58:31.015Z,52.52
2018-05-13T20:00:59.504Z,52.45
2018-05-13T20:03:28.163Z,52.73
2018-05-13T20:05:56.388Z,52.75
2018-05-13T20:08:24.782Z,52.88
2018-05-13T20:10:53.110Z,53.01
2018-05-13T20:13:21.410Z,53.13
2018-05-13T20:15:50.462Z,53.41
2018-05-13T20:18:18.768Z,53.60
2018-05-13T20:20:47.230Z,53.83
2018-05-13T20:23:25.653Z,54.21
2018-05-13T20:25:53.858Z,54.19
2018-05-13T20:28:22.196Z,54.74
2018-05-13T20:30:50.802Z,54.87
2018-05-13T20:33:20.294Z,55.12
2018-05-13T20:35:48.623Z,55.31
2018-05-13T20:38:17.047Z,55.51
2018-05-13T20:40:45.415Z,56.08
2018-05-13T20:43:13.717Z,56.26
2018-05-13T20:45:42.667Z,56.68
2018-05-13T20:48:11.150Z,56.54
2018-05-13T20:50:39.525Z,57.02
2018-05-13T20:53:07.910Z,57.17
2018-05-13T20:55:36.333Z,57.33
2018-05-13T20:58:04.703Z,57.62
2018-05-13T21:00:33.596Z,57.39
2018-05-13T21:03:02.043Z,57.48
2018-05-13T21:05:30.578Z,57.49
2018-05-13T21:07:59.965Z,58.18
2018-05-13T21:10:28.388Z,58.06
2018-05-13T21:12:56.760Z,58.12
2018-05-13T21:15:25.337Z,58.44
2018-05-13T21:17:53.663Z,58.37
2018-05-13T21:20:22.964Z,58.32
2018-05-13T21:22:52.301Z,58.29
2018-05-13T21:25:20.621Z,58.43
2018-05-13T21:27:48.930Z,58.56
2018-05-13T21:30:18.032Z,58.36
2018-05-13T21:32:46.361Z,58.84
2018-05-13T21:35:14.752Z,59.37
2018-05-13T21:37:43.121Z,58.73
2018-05-13T21:40:11.505Z,58.68
2018-05-13T21:42:39.912Z,58.90
2018-05-13T21:45:08.474Z,58.93
2018-05-13T21:47:36.969Z,59.14
2018-05-13T21:50:05.447Z,59.01
2018-05-13T21:52:33.859Z,59.00
2018-05-13T21:55:02.289Z,59.37
2018-05-13T21:57:31.222Z,59.25
2018-05-13T22:00:00.572Z,59.44
2018-05-13T22:02:29.228Z,59.23
2018-05-13T22:04:59.596Z,59.44
2018-05-13T22:07:28.529Z,59.32
2018-05-13T22:10:00.147Z,59.56
2018-05-13T22:12:28.710Z,59.47
2018-05-13T22:14:57.319Z,59.60
2018-05-13T22:17:25.733Z,59.58
2018-05-13T22:19:54.069Z,59.60
2018-05-13T22:22:22.561Z,59.60
2018-05-13T22:24:50.934Z,59.90
2018-05-13T22:27:19.310Z,60.05
2018-05-13T22:29:47.648Z,60.30
2018-05-13T22:32:15.974Z,60.37
2018-05-13T22:37:36.050Z,61.05
2018-05-13T22:40:04.432Z,61.29
2018-05-13T22:42:32.979Z,61.55
2018-05-13T22:45:02.234Z,61.79
2018-05-13T22:47:30.611Z,61.95
2018-05-13T22:49:59.007Z,62.00
2018-05-13T22:52:27.712Z,62.28
2018-05-13T22:54:56.053Z,62.41
2018-05-13T22:57:24.479Z,62.78
2018-05-13T22:59:52.805Z,62.92
2018-05-13T23:02:21.143Z,63.17
2018-05-13T23:04:49.449Z,63.63
2018-05-13T23:07:17.817Z,63.84
2018-05-13T23:09:46.121Z,63.71
2018-05-13T23:12:14.574Z,64.05
2018-05-13T23:14:42.898Z,63.89
2018-05-13T23:17:11.241Z,64.07
2018-05-13T23:19:39.588Z,64.26
2018-05-13T23:22:08.402Z,64.38
2018-05-13T23:24:36.778Z,64.43
2018-05-13T23:27:05.079Z,64.23
2018-05-13T23:29:33.488Z,64.35
2018-05-13T23:32:01.824Z,64.42
2018-05-13T23:34:30.230Z,64.62
2018-05-13T23:36:58.678Z,64.97
2018-05-13T23:39:27.157Z,64.60
2018-05-13T23:41:55.547Z,64.90
2018-05-13T23:44:24.425Z,64.75
2018-05-13T23:46:52.774Z,64.74
2018-05-13T23:49:21.259Z,64.83
2018-05-13T23:51:49.821Z,64.71
2018-05-13T23:54:18.145Z,64.88
2018-05-13T23:56:46.503Z,64.96
2018-05-13T23:59:15.293Z,64.96
